Calgary International Airport
CYYC : rendu visible

Aérodrome :











RETROUVEZ-NOUS SUR...

 
LOGIN :

S'inscrire | Disclaimer

   EN    FR    IT 

 









Légende :    VFR   VFR Marginal   IFR   IFR Intensif   IFR Très Intensif
Visi : 
Plafond : 
>= 8 km
>= 3000ft
5 à 8 km
1000 à 3000 ft
1500m à 5 km
500 à 1000 ft
800 à 1500m
200 à 500 ft
< 800m
< 200 ft
Symboles :   Orages  Brouillard  Fortes neiges  Fortes précipitations  Vent > 20 kt






- Altitude de l'aérodrome : 3557 ft
- Code IATA : YYC


CYYC - Calgary International

DERNIER METAR :
  • 011600Z 22008KT 25SM FEW130 BKN150 BKN200 07/01 A3021 RMK AC2AC5CI1 CI TR SLP259

METARs EXPIRÉS :
  • 011500Z 22008KT 30SM FEW100 FEW130 BKN170 BKN200 07/01 A3022 RMK AC1AC1AS3CI2 SLP260
  • 011400Z 21006KT 30SM FEW100 SCT120 OVC140 OVC200 06/00 A3025 RMK AC2AC1AS5CS1 SLP270
  • 011300Z 20005KT 15SM FEW170 BKN220 04/00 A3027 RMK AC2CI5 SLP277

TAF TAF CYYC
Valide du 01 à 15h jusqu'au 02 à 12h UTC


011438Z 0115/0212 20006KT P6SM BKN200
FM011700 22010KT P6SM SCT140
BECMG 0120/0122 03010KT
FM020300 01008KT P6SM FEW240
FM020900 VRB03KT P6SM SKC RMK NXT FCST BY 011800Z
FIR CZEG / Amérique du Nord



MET'MAP, la Météo Aéronautique d'un coup d'oeil ! - Copyright ORBIFLY Décembre 2007 - Disclaimer

ORBIFLY MET'MAP TEAM :

Programmation & Développement : Alexandra Zaïnal
Sur une idée originale de : Baudouin d'Aumeries
Assistance à la programmation : Marc-Olivier Méhu
Soutien technique & logistique : Manuel Goepfert

Contact : metmap@orbifly.com




SOURCES & CREDITS :

   NOAA       Earth
Advisory